Castle Village, Louisiana
Current Conditions -  °F | °C
As of 6:53 PM on Saturday 20 Dec 2014 (Local Time) from KAEX Reporting Station
Clear Clear  
Wind Chill: 45°   Ceiling: Unl
Heat Index: 48°   Visibility: 10mi
Dew Point: 43°   Wind: 6mph
Humidity: 83%   Direction: 340°NNW
Pressure: 30.16"   Gusts: NA
Location:  31.2655°N, 92.4705°W
Report Text: KAEX 210053Z 34005KT 10SM CLR 09/06 A3016 RMK AO2 SLP219 T00890061
Loading
Personal Weather Stations






























Interactive Weather Map New forecast layout! Learn more

10-Day Weather Forecast

Advertisements
Track Severe Weather on mobile